LFPT METAR and TAF | Updated Today

LFPT METAR

Pontoise - Cormeilles-en-Vexin Airport

Observation time: 28 min. ago

LFPT 052030Z AUTO 01006KT CAVOK 04/01 Q1042

Need help? Read our tutorial on how to read METARs or read the parsed version below.

Pontoise - Cormeilles-en-Vexin Airport (LFPT) METAR

  • Weather conditions on Sun, 05 Feb 2023 20:30:00 +0000 (28 min. ago):
  • Present conditions: Dry
  • Clouds: Clear skies
  • Visibility: Greater than 10 km
  • Wind: 10 degrees at 6 knots
  • Temperature: 4 celsius
  • Dew point: 1 celsius
  • Pressure: 1042 millibars
  • Remarks: None


Useful to know...